Time;durP1;ratioP1;P1;durP2;ratioP2;P2;SDS_P1;SDS_P2;PMS_P1;PMS_P2;Temp;Humidity;BMP_temperature;BMP_pressure;BME280_temperature;BME280_humidity;BME280_pressure;Samples;Min_cycle;Max_cycle;Signal;HPM_P1;HPM_P2
2021/11/11 00:00:08;;;;;;;7.28;4.13;;;17.60;99.90;;;;;;5094213;28;20503;-75
2021/11/11 00:02:34;;;;;;;7.38;3.75;;;17.50;99.90;;;;;;5094317;28;20032;-74
2021/11/11 00:05:00;;;;;;;6.05;4.03;;;17.50;99.90;;;;;;5094025;28;20043;-74
2021/11/11 00:07:26;;;;;;;7.35;4.18;;;17.50;99.90;;;;;;5094159;28;20032;-75
2021/11/11 00:09:52;;;;;;;6.32;4.22;;;17.50;99.90;;;;;;5094186;28;20023;-76
2021/11/11 00:12:18;;;;;;;7.97;3.95;;;17.50;99.90;;;;;;5094283;28;20548;-72
2021/11/11 00:14:43;;;;;;;10.40;4.20;;;17.50;99.90;;;;;;5094227;28;20050;-71
2021/11/11 00:17:09;;;;;;;5.90;3.80;;;17.50;99.90;;;;;;5093813;28;20023;-72
2021/11/11 00:19:34;;;;;;;5.88;3.67;;;17.50;99.90;;;;;;5092565;28;20540;-74
2021/11/11 00:22:00;;;;;;;6.95;4.05;;;17.50;99.90;;;;;;5092482;28;20024;-75
2021/11/11 00:24:26;;;;;;;7.03;4.13;;;17.50;99.90;;;;;;5093968;28;20020;-75
2021/11/11 00:26:52;;;;;;;6.25;4.15;;;17.50;99.90;;;;;;5093834;28;20024;-71
2021/11/11 00:29:17;;;;;;;9.32;4.93;;;17.50;99.90;;;;;;5093896;28;20020;-74
2021/11/11 00:31:43;;;;;;;6.03;3.88;;;17.50;99.90;;;;;;5093805;28;20027;-75
2021/11/11 00:34:08;;;;;;;6.95;4.13;;;17.50;99.90;;;;;;5093560;28;20123;-73
2021/11/11 00:36:34;;;;;;;6.32;4.20;;;17.50;99.90;;;;;;5093783;28;20044;-74
2021/11/11 00:39:01;;;;;;;5.82;3.70;;;17.50;99.90;;;;;;5093349;28;20391;-74
2021/11/11 00:41:27;;;;;;;6.25;3.95;;;17.40;99.90;;;;;;5093645;28;20406;-75
2021/11/11 00:43:52;;;;;;;5.82;4.03;;;17.40;99.90;;;;;;5093362;28;20031;-70
2021/11/11 00:46:18;;;;;;;7.03;3.80;;;17.40;99.90;;;;;;5093937;28;20026;-75
2021/11/11 00:48:44;;;;;;;6.45;4.03;;;17.40;99.90;;;;;;5093580;28;20016;-72
2021/11/11 00:51:09;;;;;;;6.93;3.85;;;17.40;99.90;;;;;;5093156;28;20039;-74
2021/11/11 00:53:35;;;;;;;5.65;3.78;;;17.40;99.90;;;;;;5093423;28;20082;-72
2021/11/11 00:56:01;;;;;;;5.97;4.15;;;17.40;99.90;;;;;;5093082;28;20036;-71
2021/11/11 00:58:27;;;;;;;6.28;4.18;;;17.40;99.90;;;;;;5093086;28;20123;-72
2021/11/11 01:00:53;;;;;;;5.30;3.28;;;17.40;99.90;;;;;;5093326;28;20032;-69
2021/11/11 01:03:24;;;;;;;7.72;3.83;;;17.40;99.90;;;;;;5093487;28;20447;-71
2021/11/11 01:05:50;;;;;;;6.80;4.07;;;17.40;99.90;;;;;;5093548;28;20111;-71
2021/11/11 01:08:16;;;;;;;6.28;3.97;;;17.40;99.90;;;;;;5093093;28;20051;-75
2021/11/11 01:10:41;;;;;;;5.97;4.20;;;17.40;99.90;;;;;;5093245;28;20020;-78
2021/11/11 01:13:07;;;;;;;6.72;4.10;;;17.40;99.90;;;;;;5092815;28;20067;-78
2021/11/11 01:15:33;;;;;;;9.27;4.63;;;17.40;99.90;;;;;;5093108;28;20059;-79
2021/11/11 01:18:01;;;;;;;6.97;3.95;;;17.40;99.90;;;;;;5092529;28;20020;-78
2021/11/11 01:20:27;;;;;;;5.40;3.67;;;17.40;99.90;;;;;;5093093;28;20052;-81
2021/11/11 01:22:54;;;;;;;6.22;3.53;;;17.30;99.90;;;;;;5091599;28;20056;-81
2021/11/11 01:25:22;;;;;;;7.63;4.30;;;17.30;99.90;;;;;;5095606;28;20435;-72
2021/11/11 01:27:48;;;;;;;5.65;4.30;;;17.30;99.90;;;;;;5092192;28;20090;-78
2021/11/11 01:30:14;;;;;;;5.97;3.83;;;17.30;99.90;;;;;;5093151;28;20028;-84
2021/11/11 01:32:40;;;;;;;7.50;4.15;;;17.30;99.90;;;;;;5091522;28;20028;-84
2021/11/11 01:35:08;;;;;;;5.25;3.70;;;17.30;99.90;;;;;;5092384;28;20020;-78
2021/11/11 01:37:34;;;;;;;6.88;3.63;;;17.30;99.90;;;;;;5092454;28;20077;-76
2021/11/11 01:40:00;;;;;;;6.93;3.70;;;17.30;99.90;;;;;;5092520;28;20099;-73
2021/11/11 01:42:25;;;;;;;5.43;4.10;;;17.30;99.90;;;;;;5092509;28;20379;-77
2021/11/11 01:44:55;;;;;;;6.55;4.18;;;17.30;99.90;;;;;;5092390;28;20559;-77
2021/11/11 01:47:21;;;;;;;6.47;4.53;;;17.20;99.90;;;;;;5092768;28;20020;-71
2021/11/11 01:49:48;;;;;;;7.88;3.90;;;17.20;99.90;;;;;;5094184;28;20032;-79
2021/11/11 01:52:17;;;;;;;6.28;4.10;;;17.20;99.90;;;;;;5092256;28;20098;-83
2021/11/11 01:54:43;;;;;;;6.38;4.30;;;17.30;99.90;;;;;;5091502;28;20031;-71
2021/11/11 01:57:09;;;;;;;6.45;4.00;;;17.20;99.90;;;;;;5091904;28;20020;-77
2021/11/11 01:59:34;;;;;;;9.02;4.07;;;17.20;99.90;;;;;;5092481;28;20046;-73
2021/11/11 02:02:00;;;;;;;5.65;4.13;;;17.20;99.90;;;;;;5092474;28;20024;-79
2021/11/11 02:04:26;;;;;;;5.60;3.72;;;17.20;99.90;;;;;;5092409;28;20028;-79
2021/11/11 02:06:52;;;;;;;6.38;4.22;;;17.20;99.90;;;;;;5092391;28;20031;-81
2021/11/11 02:09:19;;;;;;;6.53;4.35;;;17.20;99.90;;;;;;5092370;28;20020;-74
2021/11/11 02:11:47;;;;;;;6.28;3.78;;;17.20;99.90;;;;;;5092121;28;20031;-80
2021/11/11 02:14:14;;;;;;;7.43;4.32;;;17.20;99.90;;;;;;5093176;28;20046;-70
2021/11/11 02:16:40;;;;;;;5.30;4.05;;;17.10;99.90;;;;;;5091105;28;20051;-72
2021/11/11 02:19:08;;;;;;;7.00;4.47;;;17.20;99.90;;;;;;5091935;28;20072;-71
2021/11/11 02:21:35;;;;;;;6.05;3.95;;;17.10;99.90;;;;;;5092249;28;20013;-72
2021/11/11 02:24:00;;;;;;;6.53;3.97;;;17.10;99.90;;;;;;5092101;28;20099;-79
2021/11/11 02:26:26;;;;;;;5.88;3.95;;;17.10;99.90;;;;;;5092030;28;20173;-78
2021/11/11 02:28:54;;;;;;;6.55;3.95;;;17.10;99.90;;;;;;5092816;28;20016;-75
2021/11/11 02:31:20;;;;;;;6.03;3.95;;;17.10;99.90;;;;;;5092233;28;20039;-81
2021/11/11 02:33:57;;;;;;;5.35;3.90;;;17.10;99.90;;;;;;5091671;28;20095;-80
2021/11/11 02:36:22;;;;;;;6.15;3.95;;;17.10;99.90;;;;;;5091550;28;20384;-78
2021/11/11 02:38:49;;;;;;;6.63;3.78;;;17.10;99.90;;;;;;5093274;28;20042;-78
2021/11/11 02:41:17;;;;;;;6.53;4.60;;;17.10;99.90;;;;;;5091422;28;20066;-77
2021/11/11 02:43:46;;;;;;;7.63;4.40;;;17.10;99.90;;;;;;5091569;28;20024;-78
2021/11/11 02:46:12;;;;;;;6.97;4.50;;;17.00;99.90;;;;;;5092326;28;20039;-73
2021/11/11 02:48:38;;;;;;;6.07;4.18;;;17.10;99.90;;;;;;5092061;28;20020;-76
2021/11/11 02:51:04;;;;;;;6.43;3.97;;;17.00;99.90;;;;;;5091206;28;20143;-84
2021/11/11 02:53:29;;;;;;;5.55;3.80;;;17.10;99.90;;;;;;5091420;28;20071;-82
2021/11/11 02:55:56;;;;;;;6.03;4.30;;;17.00;99.90;;;;;;5089841;28;20357;-78
2021/11/11 02:58:24;;;;;;;6.93;4.50;;;17.00;99.90;;;;;;5091678;28;20068;-70
2021/11/11 03:00:55;;;;;;;7.53;4.53;;;17.00;99.90;;;;;;5091599;28;20028;-75
2021/11/11 03:03:20;;;;;;;6.97;3.90;;;17.00;99.90;;;;;;5093243;28;20111;-73
2021/11/11 03:05:46;;;;;;;6.38;4.25;;;17.00;99.90;;;;;;5093049;28;20100;-76
2021/11/11 03:08:13;;;;;;;6.05;4.40;;;17.00;99.90;;;;;;5095205;28;20441;-71
2021/11/11 03:10:40;;;;;;;5.45;4.13;;;17.00;99.90;;;;;;5095502;28;20028;-78
2021/11/11 03:13:08;;;;;;;5.78;4.10;;;17.00;99.90;;;;;;5095046;28;20020;-82
2021/11/11 03:15:34;;;;;;;6.60;4.30;;;17.00;99.90;;;;;;5095310;28;20074;-76
2021/11/11 03:18:01;;;;;;;5.38;4.38;;;17.00;99.90;;;;;;5094882;28;20043;-77
2021/11/11 03:20:27;;;;;;;6.82;4.32;;;17.00;99.90;;;;;;5094015;28;20483;-77
2021/11/11 03:22:54;;;;;;;6.40;4.40;;;17.00;99.90;;;;;;5095003;28;20036;-74
2021/11/11 03:25:24;;;;;;;6.93;4.35;;;17.00;99.90;;;;;;5095552;28;20047;-78
2021/11/11 03:27:52;;;;;;;5.32;3.72;;;17.00;99.90;;;;;;5094996;28;20028;-78
2021/11/11 03:30:20;;;;;;;6.43;4.40;;;17.00;99.90;;;;;;5094995;28;20478;-69
2021/11/11 03:32:46;;;;;;;5.82;4.45;;;16.90;99.90;;;;;;5095059;28;20024;-70
2021/11/11 03:35:12;;;;;;;6.60;4.15;;;17.00;99.90;;;;;;5094936;28;20097;-70
2021/11/11 03:37:40;;;;;;;6.82;4.22;;;17.00;99.90;;;;;;5094840;28;20429;-73
2021/11/11 03:40:19;;;;;;;6.28;4.10;;;17.00;99.90;;;;;;5094666;28;20471;-74
2021/11/11 03:42:46;;;;;;;4.95;3.90;;;17.00;99.90;;;;;;5094964;28;20020;-80
2021/11/11 03:45:13;;;;;;;5.82;4.13;;;17.00;99.90;;;;;;5094483;28;20028;-74
2021/11/11 03:47:38;;;;;;;5.03;4.30;;;17.00;99.90;;;;;;5094736;28;20043;-72
2021/11/11 03:50:05;;;;;;;5.68;3.90;;;17.00;99.90;;;;;;5094366;28;20020;-79
2021/11/11 03:52:32;;;;;;;5.10;3.80;;;16.90;99.90;;;;;;5095327;28;20028;-73
2021/11/11 03:54:58;;;;;;;6.25;3.92;;;16.90;99.90;;;;;;5093169;28;20478;-70
2021/11/11 03:57:24;;;;;;;6.03;4.28;;;16.90;99.90;;;;;;5094228;28;20429;-73
2021/11/11 03:59:50;;;;;;;5.57;3.75;;;16.90;99.90;;;;;;5093470;28;20384;-79
2021/11/11 04:02:16;;;;;;;5.03;3.78;;;16.90;99.90;;;;;;5092634;28;20035;-78
2021/11/11 04:04:42;;;;;;;5.88;3.83;;;16.90;99.90;;;;;;5093022;28;20032;-79
2021/11/11 04:07:08;;;;;;;4.75;3.92;;;16.90;99.90;;;;;;5092893;28;20023;-72
2021/11/11 04:09:34;;;;;;;5.32;4.15;;;16.90;99.90;;;;;;5093095;28;20043;-76
2021/11/11 04:12:01;;;;;;;5.32;3.58;;;16.90;99.90;;;;;;5092895;28;20031;-79
2021/11/11 04:14:27;;;;;;;6.10;3.75;;;17.00;99.90;;;;;;5093398;28;20040;-71
2021/11/11 04:16:53;;;;;;;6.47;4.32;;;17.00;99.90;;;;;;5093875;28;20425;-70
2021/11/11 04:19:18;;;;;;;5.53;3.78;;;17.00;99.90;;;;;;5093387;28;20036;-77
2021/11/11 04:21:44;;;;;;;5.35;3.80;;;17.00;99.90;;;;;;5092841;28;20035;-78
2021/11/11 04:24:11;;;;;;;5.88;3.65;;;17.00;99.90;;;;;;5092694;28;20032;-75
2021/11/11 04:26:53;;;;;;;4.55;3.45;;;17.00;99.90;;;;;;5092902;28;20055;-73
2021/11/11 04:29:24;;;;;;;5.40;3.83;;;17.00;99.90;;;;;;5093236;28;20105;-74
2021/11/11 04:31:57;;;;;;;6.45;3.90;;;17.00;99.90;;;;;;5093388;28;20103;-75
2021/11/11 04:34:24;;;;;;;8.32;3.97;;;17.00;99.90;;;;;;5093199;28;20104;-76
2021/11/11 04:42:24;;;;;;;4.72;3.78;;;17.00;99.90;;;;;;5092909;28;20027;-72
2021/11/11 04:48:12;;;;;;;5.22;4.00;;;17.00;99.90;;;;;;5070071;28;20511;-75
2021/11/11 04:51:09;;;;;;;4.75;3.65;;;17.00;99.90;;;;;;5070305;28;20040;-73
2021/11/11 05:04:26;;;;;;;5.28;3.72;;;17.10;99.90;;;;;;5093694;28;20026;-72
2021/11/11 05:06:52;;;;;;;5.97;3.80;;;17.00;99.90;;;;;;5094514;28;20102;-78
2021/11/11 05:09:18;;;;;;;5.43;3.70;;;17.10;99.90;;;;;;5093395;28;20387;-72
2021/11/11 05:11:44;;;;;;;4.63;3.70;;;17.10;99.90;;;;;;5093197;28;20016;-75
2021/11/11 05:14:09;;;;;;;4.93;3.58;;;17.10;99.90;;;;;;5093010;28;20024;-75
2021/11/11 05:16:35;;;;;;;5.30;3.63;;;17.10;99.90;;;;;;5093005;28;20016;-73
2021/11/11 05:19:00;;;;;;;7.00;4.20;;;17.10;99.90;;;;;;5092588;28;20063;-73
2021/11/11 05:21:26;;;;;;;5.65;3.72;;;17.10;99.90;;;;;;5092859;28;20023;-70
2021/11/11 05:23:52;;;;;;;4.60;3.63;;;17.10;99.90;;;;;;5093246;28;20032;-74
2021/11/11 05:26:18;;;;;;;4.43;3.55;;;17.10;99.90;;;;;;5093294;28;20174;-71
2021/11/11 05:28:44;;;;;;;5.88;3.90;;;17.10;99.90;;;;;;5091073;28;20115;-73
2021/11/11 05:31:09;;;;;;;5.50;3.75;;;17.10;99.90;;;;;;5092576;28;20020;-70
2021/11/11 05:33:35;;;;;;;5.45;3.88;;;17.10;99.90;;;;;;5092738;28;20035;-75
2021/11/11 05:36:01;;;;;;;6.35;3.35;;;17.20;99.90;;;;;;5092521;28;20073;-74
2021/11/11 05:38:27;;;;;;;6.10;3.95;;;17.20;99.90;;;;;;5092719;28;20461;-77
2021/11/11 05:40:53;;;;;;;5.20;3.85;;;17.10;99.90;;;;;;5092985;28;20101;-76
2021/11/11 05:43:18;;;;;;;6.10;3.95;;;17.20;99.90;;;;;;5092948;28;20101;-74
2021/11/11 05:45:44;;;;;;;4.75;3.25;;;17.20;99.90;;;;;;5093031;28;20032;-73
2021/11/11 05:48:09;;;;;;;5.70;4.07;;;17.20;99.90;;;;;;5092186;28;20016;-80
2021/11/11 05:50:36;;;;;;;5.07;3.67;;;17.20;99.90;;;;;;5092707;28;20465;-81
2021/11/11 05:53:02;;;;;;;5.18;3.95;;;17.20;99.90;;;;;;5092363;28;20047;-76
2021/11/11 05:55:28;;;;;;;4.57;3.70;;;17.20;99.90;;;;;;5092961;28;20069;-78
2021/11/11 05:57:54;;;;;;;4.75;3.70;;;17.20;99.90;;;;;;5090534;28;20435;-78
2021/11/11 06:00:21;;;;;;;7.80;3.90;;;17.20;99.90;;;;;;5091752;28;20456;-74
2021/11/11 06:02:47;;;;;;;6.60;3.50;;;17.20;99.90;;;;;;5091126;28;20028;-80
2021/11/11 06:05:13;;;;;;;5.85;3.35;;;17.20;99.90;;;;;;5092063;28;20122;-76
2021/11/11 06:07:39;;;;;;;4.82;3.60;;;17.30;99.90;;;;;;5092001;28;20024;-71
2021/11/11 06:10:06;;;;;;;5.65;3.65;;;17.30;99.90;;;;;;5090764;28;20058;-77
2021/11/11 06:12:32;;;;;;;4.95;3.53;;;17.30;99.90;;;;;;5092527;28;20016;-73
2021/11/11 06:14:57;;;;;;;6.60;4.00;;;17.30;99.90;;;;;;5091933;28;20073;-70
2021/11/11 06:17:24;;;;;;;6.22;3.58;;;17.30;99.90;;;;;;5091890;28;20434;-70
2021/11/11 06:19:51;;;;;;;5.25;3.63;;;17.30;99.90;;;;;;5091480;28;20113;-76
2021/11/11 06:22:17;;;;;;;5.10;3.70;;;17.40;99.90;;;;;;5091215;28;20023;-80
2021/11/11 06:24:44;;;;;;;4.90;3.85;;;17.40;99.90;;;;;;5091876;28;20627;-70
2021/11/11 06:27:11;;;;;;;4.57;3.42;;;17.40;99.90;;;;;;5091689;28;20030;-70
2021/11/11 06:29:36;;;;;;;6.88;3.85;;;17.40;99.90;;;;;;5091755;28;20028;-75
2021/11/11 06:32:02;;;;;;;5.18;3.67;;;17.50;99.90;;;;;;5091584;28;20026;-70
2021/11/11 06:34:28;;;;;;;4.53;3.53;;;17.40;99.90;;;;;;5091517;28;20028;-71
2021/11/11 06:36:54;;;;;;;4.20;3.70;;;17.50;99.90;;;;;;5091352;28;20035;-71
2021/11/11 06:39:20;;;;;;;5.57;3.60;;;17.50;99.90;;;;;;5091787;28;20387;-74
2021/11/11 06:41:45;;;;;;;6.93;3.33;;;17.50;99.90;;;;;;5091661;28;20020;-70
2021/11/11 06:44:18;;;;;;;5.15;3.33;;;17.50;99.90;;;;;;5092077;28;20495;-70
2021/11/11 06:46:44;;;;;;;4.47;3.47;;;17.50;99.90;;;;;;5091682;28;20030;-75
2021/11/11 06:49:10;;;;;;;4.72;3.38;;;17.60;99.90;;;;;;5091331;28;20017;-74
2021/11/11 06:51:35;;;;;;;5.63;3.80;;;17.60;99.90;;;;;;5091573;28;20434;-75
2021/11/11 06:54:01;;;;;;;4.53;3.10;;;17.60;99.90;;;;;;5091487;28;20364;-75
2021/11/11 06:56:29;;;;;;;4.70;3.58;;;17.60;99.90;;;;;;5091876;28;20028;-74
2021/11/11 06:58:55;;;;;;;5.45;3.80;;;17.60;99.90;;;;;;5091022;28;20072;-76
2021/11/11 07:01:21;;;;;;;3.92;3.20;;;17.60;99.90;;;;;;5090494;28;20055;-79
2021/11/11 07:03:48;;;;;;;5.15;3.35;;;17.70;99.90;;;;;;5091370;28;20081;-73
2021/11/11 07:06:14;;;;;;;5.68;3.63;;;17.70;99.90;;;;;;5090002;28;20106;-80
2021/11/11 07:08:39;;;;;;;4.53;3.80;;;17.70;99.90;;;;;;5092272;28;20028;-74
2021/11/11 07:11:05;;;;;;;4.47;3.50;;;17.70;99.90;;;;;;5091370;28;20027;-79
2021/11/11 07:13:31;;;;;;;4.57;3.38;;;17.70;99.90;;;;;;5091356;28;20051;-80
2021/11/11 07:15:57;;;;;;;5.32;3.47;;;17.80;99.90;;;;;;5091218;28;20035;-74
2021/11/11 07:18:23;;;;;;;6.20;3.80;;;17.70;99.90;;;;;;5091523;28;20031;-73
2021/11/11 07:20:50;;;;;;;4.85;3.50;;;17.80;99.90;;;;;;5091525;28;20028;-71
2021/11/11 07:23:19;;;;;;;5.30;3.63;;;17.80;99.90;;;;;;5091257;28;20028;-76
2021/11/11 07:25:45;;;;;;;5.53;3.35;;;17.80;99.90;;;;;;5091086;28;20480;-76
2021/11/11 07:28:11;;;;;;;3.92;3.20;;;17.80;99.90;;;;;;5089814;28;20047;-74
2021/11/11 07:30:37;;;;;;;4.82;3.35;;;17.80;99.90;;;;;;5091461;28;20027;-70
2021/11/11 07:33:02;;;;;;;5.07;3.40;;;17.80;99.90;;;;;;5091454;28;20028;-74
2021/11/11 07:35:28;;;;;;;5.55;3.30;;;17.90;99.90;;;;;;5091406;28;20028;-77
2021/11/11 07:37:54;;;;;;;3.63;2.97;;;17.80;99.90;;;;;;5090883;28;20024;-74
2021/11/11 07:40:23;;;;;;;4.88;3.90;;;17.90;99.90;;;;;;5091373;28;20032;-79
2021/11/11 07:42:50;;;;;;;3.55;2.97;;;17.90;99.90;;;;;;5089995;28;20078;-81
2021/11/11 07:45:18;;;;;;;5.72;3.30;;;17.90;99.90;;;;;;5091116;28;20028;-75
2021/11/11 07:47:44;;;;;;;4.38;3.20;;;17.90;99.90;;;;;;5091119;28;20108;-78
2021/11/11 07:50:10;;;;;;;5.57;3.38;;;17.90;99.90;;;;;;5090952;28;20051;-71
2021/11/11 07:52:37;;;;;;;4.18;3.35;;;17.90;99.90;;;;;;5093760;28;20525;-72
2021/11/11 07:55:04;;;;;;;4.40;3.35;;;17.90;99.90;;;;;;5094747;28;20384;-72
2021/11/11 07:57:31;;;;;;;12.77;3.50;;;17.90;99.90;;;;;;5093363;28;20024;-71
2021/11/11 07:59:58;;;;;;;5.38;3.47;;;17.90;99.90;;;;;;5094568;28;20032;-81
2021/11/11 08:02:24;;;;;;;5.35;3.67;;;17.90;99.90;;;;;;5094559;28;20452;-72
2021/11/11 08:04:52;;;;;;;5.63;3.85;;;17.90;99.90;;;;;;5094988;28;20035;-70
2021/11/11 08:07:18;;;;;;;5.78;4.05;;;17.90;99.90;;;;;;5094452;28;20028;-70
2021/11/11 08:09:45;;;;;;;4.65;3.47;;;17.90;99.90;;;;;;5094534;28;20047;-73
2021/11/11 08:12:11;;;;;;;7.30;4.20;;;17.90;99.90;;;;;;5094240;28;20032;-72
2021/11/11 08:14:37;;;;;;;5.60;3.83;;;18.00;99.90;;;;;;5094247;28;20020;-73
2021/11/11 08:17:03;;;;;;;5.78;3.58;;;18.00;99.90;;;;;;5092698;28;20058;-74
2021/11/11 08:19:29;;;;;;;5.93;3.95;;;18.00;99.90;;;;;;5094156;28;20067;-72
2021/11/11 08:21:54;;;;;;;5.50;4.15;;;18.00;99.90;;;;;;5093388;28;20028;-74
2021/11/11 08:24:20;;;;;;;6.47;4.32;;;18.00;99.90;;;;;;5094486;28;20051;-73
2021/11/11 08:26:46;;;;;;;6.15;4.38;;;18.00;99.90;;;;;;5093975;28;20055;-71
2021/11/11 08:29:11;;;;;;;18.80;8.75;;;17.90;99.90;;;;;;5093444;28;20027;-74
2021/11/11 08:31:37;;;;;;;14.55;10.48;;;17.90;99.90;;;;;;5093935;28;20388;-74
2021/11/11 08:34:03;;;;;;;10.50;7.65;;;17.80;99.90;;;;;;5092480;28;20468;-72
2021/11/11 08:36:30;;;;;;;18.30;7.80;;;17.90;99.90;;;;;;5093994;28;20105;-77
2021/11/11 08:38:57;;;;;;;12.18;7.60;;;17.90;99.90;;;;;;5093611;28;20032;-77
2021/11/11 08:41:23;;;;;;;10.00;6.70;;;17.90;99.90;;;;;;5094005;28;20024;-74
2021/11/11 08:43:49;;;;;;;13.15;6.90;;;17.90;99.90;;;;;;5094210;28;20043;-73
2021/11/11 08:46:15;;;;;;;8.07;6.10;;;17.90;99.90;;;;;;5093671;28;20099;-74
2021/11/11 08:48:41;;;;;;;11.23;6.45;;;17.80;99.90;;;;;;5095294;28;20079;-73
2021/11/11 08:51:07;;;;;;;8.07;5.40;;;17.80;99.90;;;;;;5093487;28;20416;-74
2021/11/11 08:53:33;;;;;;;10.02;6.07;;;17.90;99.90;;;;;;5093587;28;20056;-75
2021/11/11 08:55:59;;;;;;;8.60;6.00;;;17.90;99.90;;;;;;5093511;28;20048;-76
2021/11/11 08:58:29;;;;;;;8.15;5.40;;;17.90;99.90;;;;;;5093470;28;20028;-74
2021/11/11 09:00:59;;;;;;;8.90;5.65;;;17.90;99.90;;;;;;5093616;28;20016;-74
2021/11/11 09:03:25;;;;;;;8.35;5.18;;;17.90;99.90;;;;;;5092220;28;20016;-72
2021/11/11 09:05:51;;;;;;;10.75;4.93;;;17.90;99.90;;;;;;5093546;28;20111;-73
2021/11/11 09:08:16;;;;;;;7.25;5.13;;;17.90;99.90;;;;;;5091861;28;20055;-72
2021/11/11 09:10:44;;;;;;;9.13;5.75;;;17.90;99.90;;;;;;5093472;28;20425;-72
2021/11/11 09:13:10;;;;;;;8.38;4.85;;;17.80;99.90;;;;;;5092970;28;20073;-72
2021/11/11 09:15:36;;;;;;;8.30;5.10;;;17.90;99.90;;;;;;5092333;28;20024;-71
2021/11/11 09:18:04;;;;;;;9.63;5.63;;;17.90;99.90;;;;;;5073749;28;20468;-72
2021/11/11 09:20:31;;;;;;;7.70;5.18;;;17.90;99.90;;;;;;5072864;28;20016;-73
2021/11/11 09:22:59;;;;;;;7.68;5.00;;;17.80;99.90;;;;;;5085461;28;20052;-73
2021/11/11 09:25:27;;;;;;;9.35;5.03;;;17.90;99.90;;;;;;5092650;28;20024;-75
2021/11/11 09:27:54;;;;;;;9.27;6.20;;;17.80;99.90;;;;;;5091578;28;20426;-73
2021/11/11 09:30:25;;;;;;;8.27;5.43;;;17.80;99.90;;;;;;5093112;28;20024;-74
2021/11/11 09:32:51;;;;;;;9.38;5.43;;;17.80;99.90;;;;;;5093124;28;20059;-75
2021/11/11 09:35:17;;;;;;;9.40;6.07;;;17.80;99.90;;;;;;5092466;28;20028;-73
2021/11/11 09:37:43;;;;;;;10.85;5.72;;;17.80;99.90;;;;;;5092276;28;20480;-75
2021/11/11 09:40:15;;;;;;;8.52;5.50;;;17.80;99.90;;;;;;5092222;28;20057;-73
2021/11/11 09:42:42;;;;;;;7.72;5.80;;;17.80;99.90;;;;;;5092753;28;20099;-73
2021/11/11 09:45:11;;;;;;;8.90;5.30;;;17.80;99.90;;;;;;5092506;28;20157;-74
2021/11/11 09:47:37;;;;;;;8.80;5.78;;;17.80;99.90;;;;;;5091376;28;20051;-73
2021/11/11 09:50:06;;;;;;;7.70;5.43;;;17.80;99.90;;;;;;5089284;28;20103;-73
2021/11/11 09:52:32;;;;;;;8.68;5.35;;;17.80;99.90;;;;;;5090986;28;20058;-76
2021/11/11 10:00:26;;;;;;;8.25;5.70;;;17.80;99.90;;;;;;5089820;28;20538;-77
2021/11/11 10:02:54;;;;;;;7.63;5.68;;;17.80;99.90;;;;;;5091020;28;20016;-76
2021/11/11 10:05:20;;;;;;;8.30;6.25;;;17.80;99.90;;;;;;5090401;28;20036;-73
2021/11/11 10:07:46;;;;;;;8.60;5.60;;;17.80;99.90;;;;;;5090519;28;20022;-76
2021/11/11 10:10:30;;;;;;;8.82;6.13;;;17.70;99.90;;;;;;5090403;28;20023;-74
2021/11/11 10:13:13;;;;;;;9.77;5.72;;;17.70;99.90;;;;;;5091885;28;20028;-75
2021/11/11 10:16:01;;;;;;;7.88;4.85;;;17.80;99.90;;;;;;5091673;28;20531;-77
2021/11/11 10:18:47;;;;;;;9.82;5.35;;;17.80;99.90;;;;;;5091962;28;20484;-75
2021/11/11 10:21:28;;;;;;;8.05;5.20;;;17.70;99.90;;;;;;5091884;28;20262;-75
2021/11/11 10:23:55;;;;;;;8.48;5.53;;;17.70;99.90;;;;;;5087606;28;20039;-73
2021/11/11 10:26:27;;;;;;;8.57;5.28;;;17.70;99.90;;;;;;5090066;28;20024;-74
2021/11/11 10:28:53;;;;;;;8.65;5.97;;;17.70;99.90;;;;;;5092158;28;20020;-76
2021/11/11 10:31:21;;;;;;;9.73;5.50;;;17.80;99.90;;;;;;5092164;28;20016;-73
2021/11/11 10:34:07;;;;;;;10.18;6.03;;;17.80;99.90;;;;;;5091885;28;20032;-81
2021/11/11 10:36:45;;;;;;;13.98;5.47;;;17.80;99.90;;;;;;5091009;28;20099;-71
2021/11/11 10:39:24;;;;;;;9.10;5.30;;;17.80;99.90;;;;;;5089017;28;20035;-75
2021/11/11 10:41:50;;;;;;;10.63;6.43;;;17.80;99.90;;;;;;5092034;28;20052;-72
2021/11/11 10:44:23;;;;;;;8.38;5.75;;;17.80;99.90;;;;;;5090884;28;20036;-71
2021/11/11 10:46:59;;;;;;;8.27;6.00;;;17.80;99.90;;;;;;5092046;28;20117;-69
2021/11/11 10:49:45;;;;;;;9.77;5.53;;;17.80;99.90;;;;;;5091434;28;20271;-70
2021/11/11 10:52:24;;;;;;;10.25;5.18;;;17.80;99.90;;;;;;5091121;28;20107;-69
2021/11/11 10:54:57;;;;;;;9.00;5.60;;;17.80;99.90;;;;;;5092020;28;20020;-77
2021/11/11 10:57:38;;;;;;;13.70;6.30;;;17.80;99.90;;;;;;5091599;28;20055;-69
2021/11/11 11:00:09;;;;;;;12.85;6.53;;;17.80;99.90;;;;;;5091145;28;20047;-78
2021/11/11 11:02:50;;;;;;;13.27;6.30;;;17.80;99.90;;;;;;5091447;28;20059;-77
2021/11/11 11:05:17;;;;;;;12.75;5.97;;;17.70;99.90;;;;;;5091284;28;20099;-75
2021/11/11 11:07:46;;;;;;;9.73;6.47;;;17.80;99.90;;;;;;5091645;28;20445;-78
2021/11/11 11:10:12;;;;;;;10.77;6.72;;;17.80;99.90;;;;;;5090225;28;20103;-80
2021/11/11 11:12:38;;;;;;;12.90;7.00;;;17.80;99.90;;;;;;5090482;28;20070;-79
2021/11/11 11:15:04;;;;;;;13.27;6.93;;;17.80;99.90;;;;;;5090607;28;20016;-77
2021/11/11 11:17:29;;;;;;;14.95;6.90;;;17.80;99.90;;;;;;5090909;28;20480;-73
2021/11/11 11:20:18;;;;;;;11.57;7.00;;;17.80;99.90;;;;;;5091190;28;20434;-71
2021/11/11 11:22:44;;;;;;;10.43;6.18;;;17.80;99.90;;;;;;5091016;28;20020;-76
2021/11/11 11:25:10;;;;;;;16.60;7.10;;;17.80;99.90;;;;;;5089723;28;20085;-69
2021/11/11 11:27:36;;;;;;;10.13;6.43;;;17.80;99.90;;;;;;5092180;28;20020;-71
2021/11/11 11:30:14;;;;;;;10.77;6.25;;;17.80;99.90;;;;;;5094569;28;20107;-74
2021/11/11 11:32:43;;;;;;;12.88;6.35;;;17.70;99.90;;;;;;5094961;28;20471;-70
2021/11/11 11:35:10;;;;;;;7.65;5.72;;;17.80;99.90;;;;;;5093563;28;20024;-71
2021/11/11 11:37:37;;;;;;;13.65;6.35;;;17.80;99.90;;;;;;5093802;28;20153;-69
2021/11/11 11:40:10;;;;;;;8.00;5.85;;;17.80;99.90;;;;;;5093372;28;20043;-68
2021/11/11 11:42:39;;;;;;;9.68;5.85;;;17.80;99.90;;;;;;5092876;28;20048;-67
2021/11/11 11:45:13;;;;;;;10.40;5.72;;;17.70;99.90;;;;;;5088984;28;20024;-70
2021/11/11 11:47:53;;;;;;;8.95;5.57;;;17.70;99.90;;;;;;5091458;28;20092;-71
2021/11/11 11:50:28;;;;;;;9.02;5.47;;;17.70;99.90;;;;;;5074981;28;20029;-68
2021/11/11 11:53:00;;;;;;;10.00;5.47;;;17.80;99.90;;;;;;5109336;28;20069;-68
2021/11/11 11:58:06;;;;;;;8.48;5.18;;;17.80;99.90;;;;;;5094574;28;20032;-70
2021/11/11 12:29:14;;;;;;;6.97;4.68;;;17.80;99.90;;;;;;5093737;28;20114;-73
2021/11/11 12:39:58;;;;;;;7.03;4.53;;;17.80;99.90;;;;;;5091789;28;20117;-73
2021/11/11 12:42:40;;;;;;;9.53;6.03;;;17.80;99.90;;;;;;5093286;28;20153;-68
2021/11/11 12:45:30;;;;;;;9.48;6.20;;;17.80;99.90;;;;;;5092499;28;20023;-68
2021/11/11 12:48:02;;;;;;;11.30;6.05;;;17.80;99.90;;;;;;5093360;28;20020;-76
2021/11/11 12:50:31;;;;;;;11.98;6.00;;;17.80;99.90;;;;;;5091545;28;20054;-76
2021/11/11 12:53:16;;;;;;;11.55;6.00;;;17.80;99.90;;;;;;5093640;28;20016;-75
2021/11/11 12:56:10;;;;;;;11.60;6.38;;;17.80;99.90;;;;;;5093532;28;20364;-71
2021/11/11 12:58:40;;;;;;;9.43;5.57;;;17.80;99.90;;;;;;5093581;28;20399;-74
2021/11/11 13:01:17;;;;;;;9.43;5.82;;;17.80;99.90;;;;;;5093409;28;20543;-68
2021/11/11 13:04:00;;;;;;;10.43;6.22;;;17.80;99.90;;;;;;5093515;28;20070;-74
2021/11/11 13:06:36;;;;;;;11.95;6.28;;;17.90;99.90;;;;;;5093626;28;20020;-71
2021/11/11 13:09:27;;;;;;;8.93;5.82;;;17.90;99.90;;;;;;5093188;28;20016;-69
2021/11/11 13:12:02;;;;;;;10.00;6.32;;;17.80;99.90;;;;;;5093371;28;20046;-69
2021/11/11 13:14:30;;;;;;;9.45;6.03;;;17.80;99.90;;;;;;5091382;28;20024;-70
2021/11/11 13:16:56;;;;;;;10.95;5.65;;;17.90;99.90;;;;;;5091588;28;20522;-69
2021/11/11 13:19:34;;;;;;;9.77;5.85;;;17.90;99.90;;;;;;5092627;28;20036;-75
2021/11/11 13:22:15;;;;;;;9.15;5.53;;;17.90;99.90;;;;;;5092926;28;20016;-70
2021/11/11 16:26:49;;;;;;;4.68;3.50;;;18.80;99.90;;;;;;5094689;28;20395;-73
2021/11/11 16:29:15;;;;;;;6.35;3.88;;;18.80;99.90;;;;;;5092810;28;20020;-79
2021/11/11 16:31:41;;;;;;;4.43;3.35;;;18.80;99.90;;;;;;5091408;28;20024;-76
2021/11/11 16:34:06;;;;;;;4.65;3.50;;;18.80;99.90;;;;;;5093358;28;20024;-72
2021/11/11 16:36:36;;;;;;;6.05;4.07;;;18.80;99.90;;;;;;5094085;28;20028;-73
2021/11/11 16:39:02;;;;;;;4.95;3.70;;;18.80;99.90;;;;;;5092402;28;20085;-71
2021/11/11 16:41:29;;;;;;;4.57;3.55;;;18.80;99.90;;;;;;5093929;28;20016;-68
2021/11/11 16:43:55;;;;;;;6.05;4.10;;;18.80;99.90;;;;;;5093672;28;20388;-71
2021/11/11 16:46:20;;;;;;;5.05;3.70;;;18.80;99.90;;;;;;5093802;28;20016;-73
2021/11/11 16:48:46;;;;;;;7.78;4.22;;;18.80;99.90;;;;;;5093616;28;20426;-72
2021/11/11 16:51:13;;;;;;;6.68;4.00;;;18.80;99.90;;;;;;5092971;28;20084;-74
2021/11/11 16:53:39;;;;;;;6.05;4.00;;;18.80;99.90;;;;;;5093555;28;20021;-78
2021/11/11 16:56:06;;;;;;;5.55;3.67;;;18.80;99.90;;;;;;5093336;28;20109;-78